sensor_id;sensor_type;location;lat;lon;timestamp;pressure;altitude;pressure_sealevel;temperature;humidity
47522;BME280;32291;52.010;4.446;2023-07-31T00:00:02;77435.53;;;-144.67;100.00
47522;BME280;32291;52.010;4.446;2023-07-31T00:01:09;77431.25;;;-144.67;100.00
47522;BME280;32291;52.010;4.446;2023-07-31T00:02:16;77446.22;;;-144.67;100.00
47522;BME280;32291;52.010;4.446;2023-07-31T00:03:18;77429.09;;;-144.67;100.00
47522;BME280;32291;52.010;4.446;2023-07-31T00:04:25;77431.25;;;-144.67;100.00
47522;BME280;32291;52.010;4.446;2023-07-31T00:05:32;77422.69;;;-144.67;100.00
47522;BME280;32291;52.010;4.446;2023-07-31T00:06:39;77424.81;;;-144.67;100.00
47522;BME280;32291;52.010;4.446;2023-07-31T00:07:41;77420.53;;;-144.67;100.00
47522;BME280;32291;52.010;4.446;2023-07-31T00:08:48;77424.81;;;-144.67;100.00
47522;BME280;32291;52.010;4.446;2023-07-31T00:09:55;77424.81;;;-144.67;100.00
47522;BME280;32291;52.010;4.446;2023-07-31T00:11:03;77431.25;;;-144.67;100.00
47522;BME280;32291;52.010;4.446;2023-07-31T00:12:09;77431.25;;;-144.67;100.00
47522;BME280;32291;52.010;4.446;2023-07-31T00:13:16;77431.25;;;-144.67;100.00
47522;BME280;32291;52.010;4.446;2023-07-31T00:14:23;77431.25;;;-144.67;100.00
47522;BME280;32291;52.010;4.446;2023-07-31T00:15:30;77426.97;;;-144.67;100.00
47522;BME280;32291;52.010;4.446;2023-07-31T00:16:37;77422.69;;;-144.67;100.00
47522;BME280;32291;52.010;4.446;2023-07-31T00:17:39;77431.25;;;-144.67;100.00
47522;BME280;32291;52.010;4.446;2023-07-31T00:18:46;77426.97;;;-144.67;100.00
47522;BME280;32291;52.010;4.446;2023-07-31T00:19:52;77426.97;;;-144.67;100.00
47522;BME280;32291;52.010;4.446;2023-07-31T00:20:59;77418.41;;;-144.67;100.00
47522;BME280;32291;52.010;4.446;2023-07-31T00:22:01;77422.69;;;-144.67;100.00
47522;BME280;32291;52.010;4.446;2023-07-31T00:23:04;77416.25;;;-144.67;100.00
47522;BME280;32291;52.010;4.446;2023-07-31T00:24:10;77414.13;;;-144.67;100.00
47522;BME280;32291;52.010;4.446;2023-07-31T00:25:18;77418.41;;;-144.67;100.00
47522;BME280;32291;52.010;4.446;2023-07-31T00:26:25;77418.41;;;-144.67;100.00
47522;BME280;32291;52.010;4.446;2023-07-31T00:27:32;77418.41;;;-144.67;100.00
47522;BME280;32291;52.010;4.446;2023-07-31T00:28:39;77414.13;;;-144.67;100.00
47522;BME280;32291;52.010;4.446;2023-07-31T00:29:46;77411.97;;;-144.67;100.00
47522;BME280;32291;52.010;4.446;2023-07-31T00:30:53;77414.13;;;-144.67;100.00
47522;BME280;32291;52.010;4.446;2023-07-31T00:31:55;77416.25;;;-144.67;100.00
47522;BME280;32291;52.010;4.446;2023-07-31T00:33:01;77418.41;;;-144.67;100.00
47522;BME280;32291;52.010;4.446;2023-07-31T00:34:08;77414.13;;;-144.67;100.00
47522;BME280;32291;52.010;4.446;2023-07-31T00:35:15;77422.69;;;-144.67;100.00
47522;BME280;32291;52.010;4.446;2023-07-31T00:36:22;77414.13;;;-144.67;100.00
47522;BME280;32291;52.010;4.446;2023-07-31T00:37:29;77414.13;;;-144.67;100.00
47522;BME280;32291;52.010;4.446;2023-07-31T00:38:31;77420.53;;;-144.67;100.00
47522;BME280;32291;52.010;4.446;2023-07-31T00:39:38;77420.53;;;-144.67;100.00
47522;BME280;32291;52.010;4.446;2023-07-31T00:40:45;77418.41;;;-144.67;100.00
47522;BME280;32291;52.010;4.446;2023-07-31T00:41:47;77422.69;;;-144.67;100.00
47522;BME280;32291;52.010;4.446;2023-07-31T00:42:54;77424.81;;;-144.67;100.00
47522;BME280;32291;52.010;4.446;2023-07-31T00:44:01;77433.38;;;-144.67;100.00
47522;BME280;32291;52.010;4.446;2023-07-31T00:45:04;77426.97;;;-144.67;100.00
47522;BME280;32291;52.010;4.446;2023-07-31T00:46:07;77424.81;;;-144.67;100.00
47522;BME280;32291;52.010;4.446;2023-07-31T00:47:14;77433.38;;;-144.67;100.00
47522;BME280;32291;52.010;4.446;2023-07-31T00:48:21;77431.25;;;-144.67;100.00
47522;BME280;32291;52.010;4.446;2023-07-31T00:49:28;77435.53;;;-144.67;100.00
47522;BME280;32291;52.010;4.446;2023-07-31T00:50:30;77429.09;;;-144.67;100.00
47522;BME280;32291;52.010;4.446;2023-07-31T00:51:37;77431.25;;;-144.67;100.00
47522;BME280;32291;52.010;4.446;2023-07-31T00:52:44;77429.09;;;-144.67;100.00
47522;BME280;32291;52.010;4.446;2023-07-31T00:53:52;77431.25;;;-144.67;100.00
47522;BME280;32291;52.010;4.446;2023-07-31T00:55:01;77439.81;;;-144.67;100.00
47522;BME280;32291;52.010;4.446;2023-07-31T00:56:08;77448.38;;;-144.67;100.00
47522;BME280;32291;52.010;4.446;2023-07-31T00:57:15;77446.22;;;-144.67;100.00
47522;BME280;32291;52.010;4.446;2023-07-31T00:58:17;77435.53;;;-144.67;100.00
47522;BME280;32291;52.010;4.446;2023-07-31T00:59:24;77456.94;;;-144.67;100.00
47522;BME280;32291;52.010;4.446;2023-07-31T01:00:31;77454.78;;;-144.67;100.00
47522;BME280;32291;52.010;4.446;2023-07-31T01:01:38;77452.66;;;-144.67;100.00
47522;BME280;32291;52.010;4.446;2023-07-31T01:02:45;77456.94;;;-144.67;100.00
47522;BME280;32291;52.010;4.446;2023-07-31T01:03:53;77444.09;;;-144.67;100.00
47522;BME280;32291;52.010;4.446;2023-07-31T01:04:56;77448.38;;;-144.67;100.00
47522;BME280;32291;52.010;4.446;2023-07-31T01:06:15;77450.50;;;-144.67;100.00
47522;BME280;32291;52.010;4.446;2023-07-31T01:07:54;77444.09;;;-144.67;100.00
47522;BME280;32291;52.010;4.446;2023-07-31T01:09:37;77450.50;;;-144.67;100.00
47522;BME280;32291;52.010;4.446;2023-07-31T01:11:25;77456.94;;;-144.67;100.00
47522;BME280;32291;52.010;4.446;2023-07-31T01:12:35;77461.22;;;-144.67;100.00
47522;BME280;32291;52.010;4.446;2023-07-31T01:13:45;77461.22;;;-144.67;100.00
47522;BME280;32291;52.010;4.446;2023-07-31T01:15:06;77456.94;;;-144.67;100.00
47522;BME280;32291;52.010;4.446;2023-07-31T01:16:13;77465.50;;;-144.67;100.00
47522;BME280;32291;52.010;4.446;2023-07-31T01:17:20;77456.94;;;-144.67;100.00
47522;BME280;32291;52.010;4.446;2023-07-31T01:18:23;77452.66;;;-144.67;100.00
47522;BME280;32291;52.010;4.446;2023-07-31T01:19:30;77452.66;;;-144.67;100.00
47522;BME280;32291;52.010;4.446;2023-07-31T01:20:38;77444.09;;;-144.67;100.00
47522;BME280;32291;52.010;4.446;2023-07-31T01:22:05;77444.09;;;-144.67;100.00
47522;BME280;32291;52.010;4.446;2023-07-31T01:26:21;77439.81;;;-144.67;100.00
47522;BME280;32291;52.010;4.446;2023-07-31T01:27:34;77431.25;;;-144.67;100.00
47522;BME280;32291;52.010;4.446;2023-07-31T01:30:16;77422.69;;;-144.67;100.00
47522;BME280;32291;52.010;4.446;2023-07-31T01:31:25;77426.97;;;-144.67;100.00
47522;BME280;32291;52.010;4.446;2023-07-31T01:32:33;77426.97;;;-144.67;100.00
47522;BME280;32291;52.010;4.446;2023-07-31T01:33:41;77433.38;;;-144.67;100.00
47522;BME280;32291;52.010;4.446;2023-07-31T01:34:49;77422.69;;;-144.67;100.00
47522;BME280;32291;52.010;4.446;2023-07-31T01:35:57;77429.09;;;-144.67;100.00
47522;BME280;32291;52.010;4.446;2023-07-31T01:37:04;77418.41;;;-144.67;100.00
47522;BME280;32291;52.010;4.446;2023-07-31T01:38:11;77420.53;;;-144.67;100.00
47522;BME280;32291;52.010;4.446;2023-07-31T01:39:20;77424.81;;;-144.67;100.00
47522;BME280;32291;52.010;4.446;2023-07-31T01:40:22;77422.69;;;-144.67;100.00
47522;BME280;32291;52.010;4.446;2023-07-31T01:41:29;77422.69;;;-144.67;100.00
47522;BME280;32291;52.010;4.446;2023-07-31T01:42:36;77422.69;;;-144.67;100.00
47522;BME280;32291;52.010;4.446;2023-07-31T01:43:43;77416.25;;;-144.67;100.00
47522;BME280;32291;52.010;4.446;2023-07-31T01:44:50;77416.25;;;-144.67;100.00
47522;BME280;32291;52.010;4.446;2023-07-31T01:45:57;77409.84;;;-144.67;100.00
47522;BME280;32291;52.010;4.446;2023-07-31T01:47:04;77414.13;;;-144.67;100.00
47522;BME280;32291;52.010;4.446;2023-07-31T01:48:11;77411.97;;;-144.67;100.00
47522;BME280;32291;52.010;4.446;2023-07-31T01:49:17;77405.56;;;-144.67;100.00
47522;BME280;32291;52.010;4.446;2023-07-31T01:50:24;77405.56;;;-144.67;100.00
47522;BME280;32291;52.010;4.446;2023-07-31T01:51:32;77401.28;;;-144.67;100.00
47522;BME280;32291;52.010;4.446;2023-07-31T01:52:37;77399.13;;;-144.67;100.00
47522;BME280;32291;52.010;4.446;2023-07-31T01:53:44;77405.56;;;-144.67;100.00
47522;BME280;32291;52.010;4.446;2023-07-31T01:54:51;77407.69;;;-144.67;100.00
47522;BME280;32291;52.010;4.446;2023-07-31T01:55:58;77394.84;;;-144.67;100.00
47522;BME280;32291;52.010;4.446;2023-07-31T01:57:05;77411.97;;;-144.67;100.00
47522;BME280;32291;52.010;4.446;2023-07-31T01:58:12;77390.56;;;-144.67;100.00
47522;BME280;32291;52.010;4.446;2023-07-31T01:59:14;77388.44;;;-144.67;100.00
47522;BME280;32291;52.010;4.446;2023-07-31T02:00:16;77390.56;;;-144.67;100.00
47522;BME280;32291;52.010;4.446;2023-07-31T02:01:20;77377.72;;;-144.67;100.00
47522;BME280;32291;52.010;4.446;2023-07-31T02:02:28;77388.44;;;-144.67;100.00
47522;BME280;32291;52.010;4.446;2023-07-31T02:03:34;77388.44;;;-144.67;100.00
47522;BME280;32291;52.010;4.446;2023-07-31T02:04:41;77384.16;;;-144.67;100.00
47522;BME280;32291;52.010;4.446;2023-07-31T02:05:49;77377.72;;;-144.67;100.00
47522;BME280;32291;52.010;4.446;2023-07-31T02:06:56;77375.59;;;-144.67;100.00
47522;BME280;32291;52.010;4.446;2023-07-31T02:07:58;77377.72;;;-144.67;100.00
47522;BME280;32291;52.010;4.446;2023-07-31T02:09:05;77367.03;;;-144.67;100.00
47522;BME280;32291;52.010;4.446;2023-07-31T02:10:12;77362.75;;;-144.67;100.00
47522;BME280;32291;52.010;4.446;2023-07-31T02:11:19;77367.03;;;-144.67;100.00
47522;BME280;32291;52.010;4.446;2023-07-31T02:12:26;77362.75;;;-144.67;100.00
47522;BME280;32291;52.010;4.446;2023-07-31T02:13:33;77358.47;;;-144.67;100.00
47522;BME280;32291;52.010;4.446;2023-07-31T02:14:40;77356.34;;;-144.67;100.00
47522;BME280;32291;52.010;4.446;2023-07-31T02:15:48;77356.34;;;-144.67;100.00
47522;BME280;32291;52.010;4.446;2023-07-31T02:16:55;77358.47;;;-144.67;100.00
47522;BME280;32291;52.010;4.446;2023-07-31T02:18:01;77364.88;;;-144.67;100.00
47522;BME280;32291;52.010;4.446;2023-07-31T02:19:08;77369.16;;;-144.67;100.00
47522;BME280;32291;52.010;4.446;2023-07-31T02:20:15;77375.59;;;-144.67;100.00
47522;BME280;32291;52.010;4.446;2023-07-31T02:21:22;77371.31;;;-144.67;100.00
47522;BME280;32291;52.010;4.446;2023-07-31T02:22:29;77360.63;;;-144.67;100.00
47522;BME280;32291;52.010;4.446;2023-07-31T02:23:35;77379.88;;;-144.67;100.00
47522;BME280;32291;52.010;4.446;2023-07-31T02:24:42;77371.31;;;-144.67;100.00
47522;BME280;32291;52.010;4.446;2023-07-31T02:25:45;77360.63;;;-144.67;100.00
47522;BME280;32291;52.010;4.446;2023-07-31T02:26:52;77369.16;;;-144.67;100.00
47522;BME280;32291;52.010;4.446;2023-07-31T02:27:55;77362.75;;;-144.67;100.00
47522;BME280;32291;52.010;4.446;2023-07-31T02:29:02;77362.75;;;-144.67;100.00
47522;BME280;32291;52.010;4.446;2023-07-31T02:30:04;77364.88;;;-144.67;100.00
47522;BME280;32291;52.010;4.446;2023-07-31T02:31:06;77356.34;;;-144.67;100.00
47522;BME280;32291;52.010;4.446;2023-07-31T02:32:13;77356.34;;;-144.67;100.00
47522;BME280;32291;52.010;4.446;2023-07-31T02:33:21;77371.31;;;-144.67;100.00
47522;BME280;32291;52.010;4.446;2023-07-31T02:34:27;77362.75;;;-144.67;100.00
47522;BME280;32291;52.010;4.446;2023-07-31T02:35:34;77364.88;;;-144.67;100.00
47522;BME280;32291;52.010;4.446;2023-07-31T02:36:36;77360.63;;;-144.67;100.00
47522;BME280;32291;52.010;4.446;2023-07-31T02:37:43;77358.47;;;-144.67;100.00
47522;BME280;32291;52.010;4.446;2023-07-31T02:38:50;77360.63;;;-144.67;100.00
47522;BME280;32291;52.010;4.446;2023-07-31T02:39:57;77371.31;;;-144.67;100.00
47522;BME280;32291;52.010;4.446;2023-07-31T02:41:03;77362.75;;;-144.67;100.00
47522;BME280;32291;52.010;4.446;2023-07-31T02:42:10;77369.16;;;-144.67;100.00
47522;BME280;32291;52.010;4.446;2023-07-31T02:43:17;77367.03;;;-144.67;100.00
47522;BME280;32291;52.010;4.446;2023-07-31T02:44:24;77364.88;;;-144.67;100.00
47522;BME280;32291;52.010;4.446;2023-07-31T02:45:30;77362.75;;;-144.67;100.00
47522;BME280;32291;52.010;4.446;2023-07-31T02:46:37;77360.63;;;-144.67;100.00
47522;BME280;32291;52.010;4.446;2023-07-31T02:47:44;77360.63;;;-144.67;100.00
47522;BME280;32291;52.010;4.446;2023-07-31T02:48:51;77354.19;;;-144.67;100.00
47522;BME280;32291;52.010;4.446;2023-07-31T02:49:53;77364.88;;;-144.67;100.00
47522;BME280;32291;52.010;4.446;2023-07-31T02:50:55;77362.75;;;-144.67;100.00
47522;BME280;32291;52.010;4.446;2023-07-31T02:52:02;77356.34;;;-144.67;100.00
47522;BME280;32291;52.010;4.446;2023-07-31T02:53:05;77358.47;;;-144.67;100.00
47522;BME280;32291;52.010;4.446;2023-07-31T02:54:12;77347.78;;;-144.67;100.00
47522;BME280;32291;52.010;4.446;2023-07-31T02:55:21;77347.78;;;-144.67;100.00
47522;BME280;32291;52.010;4.446;2023-07-31T02:56:28;77341.34;;;-144.67;100.00
47522;BME280;32291;52.010;4.446;2023-07-31T02:57:30;77337.06;;;-144.67;100.00
47522;BME280;32291;52.010;4.446;2023-07-31T02:58:37;77341.34;;;-144.67;100.00
47522;BME280;32291;52.010;4.446;2023-07-31T02:59:44;77345.63;;;-144.67;100.00
47522;BME280;32291;52.010;4.446;2023-07-31T03:00:51;77330.66;;;-144.67;100.00
47522;BME280;32291;52.010;4.446;2023-07-31T03:01:58;77337.06;;;-144.67;100.00
47522;BME280;32291;52.010;4.446;2023-07-31T03:03:05;77337.06;;;-144.67;100.00
47522;BME280;32291;52.010;4.446;2023-07-31T03:04:07;77332.78;;;-144.67;100.00
47522;BME280;32291;52.010;4.446;2023-07-31T03:05:14;77324.22;;;-144.67;100.00
47522;BME280;32291;52.010;4.446;2023-07-31T03:06:21;77324.22;;;-144.67;100.00
47522;BME280;32291;52.010;4.446;2023-07-31T03:07:27;77322.09;;;-144.67;100.00
47522;BME280;32291;52.010;4.446;2023-07-31T03:08:35;77319.94;;;-144.67;100.00
47522;BME280;32291;52.010;4.446;2023-07-31T03:09:37;77313.53;;;-144.67;100.00
47522;BME280;32291;52.010;4.446;2023-07-31T03:10:44;77304.97;;;-144.67;100.00
47522;BME280;32291;52.010;4.446;2023-07-31T03:11:51;77326.38;;;-144.67;100.00
47522;BME280;32291;52.010;4.446;2023-07-31T03:12:57;77311.38;;;-144.67;100.00
47522;BME280;32291;52.010;4.446;2023-07-31T03:14:04;77307.09;;;-144.67;100.00
47522;BME280;32291;52.010;4.446;2023-07-31T03:15:07;77315.66;;;-144.67;100.00
47522;BME280;32291;52.010;4.446;2023-07-31T03:16:14;77304.97;;;-144.67;100.00
47522;BME280;32291;52.010;4.446;2023-07-31T03:17:21;77311.38;;;-144.67;100.00
47522;BME280;32291;52.010;4.446;2023-07-31T03:18:27;77324.22;;;-144.67;100.00
47522;BME280;32291;52.010;4.446;2023-07-31T03:19:33;77322.09;;;-144.67;100.00
47522;BME280;32291;52.010;4.446;2023-07-31T03:20:43;77311.38;;;-144.67;100.00
47522;BME280;32291;52.010;4.446;2023-07-31T03:21:50;77296.41;;;-144.67;100.00
47522;BME280;32291;52.010;4.446;2023-07-31T03:22:58;77302.81;;;-144.67;100.00
47522;BME280;32291;52.010;4.446;2023-07-31T03:24:04;77292.13;;;-144.67;100.00
47522;BME280;32291;52.010;4.446;2023-07-31T03:25:11;77298.53;;;-144.67;100.00
47522;BME280;32291;52.010;4.446;2023-07-31T03:26:19;77309.25;;;-144.67;100.00
47522;BME280;32291;52.010;4.446;2023-07-31T03:27:26;77298.53;;;-144.67;100.00
47522;BME280;32291;52.010;4.446;2023-07-31T03:28:33;77298.53;;;-144.67;100.00
47522;BME280;32291;52.010;4.446;2023-07-31T03:29:40;77298.53;;;-144.67;100.00
47522;BME280;32291;52.010;4.446;2023-07-31T03:30:46;77300.69;;;-144.67;100.00
47522;BME280;32291;52.010;4.446;2023-07-31T03:31:53;77311.38;;;-144.67;100.00
47522;BME280;32291;52.010;4.446;2023-07-31T03:33:00;77298.53;;;-144.67;100.00
47522;BME280;32291;52.010;4.446;2023-07-31T03:34:07;77298.53;;;-144.67;100.00
47522;BME280;32291;52.010;4.446;2023-07-31T03:35:13;77294.25;;;-144.67;100.00
47522;BME280;32291;52.010;4.446;2023-07-31T03:36:20;77294.25;;;-144.67;100.00
47522;BME280;32291;52.010;4.446;2023-07-31T03:37:27;77294.25;;;-144.67;100.00
47522;BME280;32291;52.010;4.446;2023-07-31T03:38:34;77296.41;;;-144.67;100.00
47522;BME280;32291;52.010;4.446;2023-07-31T03:39:41;77292.13;;;-144.67;100.00
47522;BME280;32291;52.010;4.446;2023-07-31T03:40:48;77287.84;;;-144.67;100.00
47522;BME280;32291;52.010;4.446;2023-07-31T03:41:55;77289.97;;;-144.67;100.00
47522;BME280;32291;52.010;4.446;2023-07-31T03:43:01;77292.13;;;-144.67;100.00
47522;BME280;32291;52.010;4.446;2023-07-31T03:44:08;77289.97;;;-144.67;100.00
47522;BME280;32291;52.010;4.446;2023-07-31T03:45:15;77302.81;;;-144.67;100.00
47522;BME280;32291;52.010;4.446;2023-07-31T03:46:26;77319.94;;;-144.67;100.00
47522;BME280;32291;52.010;4.446;2023-07-31T03:47:33;77302.81;;;-144.67;100.00
47522;BME280;32291;52.010;4.446;2023-07-31T03:48:39;77300.69;;;-144.67;100.00
47522;BME280;32291;52.010;4.446;2023-07-31T03:49:42;77302.81;;;-144.67;100.00
47522;BME280;32291;52.010;4.446;2023-07-31T03:50:44;77304.97;;;-144.67;100.00
47522;BME280;32291;52.010;4.446;2023-07-31T03:51:51;77302.81;;;-144.67;100.00
47522;BME280;32291;52.010;4.446;2023-07-31T03:52:58;77311.38;;;-144.67;100.00
47522;BME280;32291;52.010;4.446;2023-07-31T03:54:00;77298.53;;;-144.67;100.00
47522;BME280;32291;52.010;4.446;2023-07-31T03:55:07;77304.97;;;-144.67;100.00
47522;BME280;32291;52.010;4.446;2023-07-31T03:56:14;77300.69;;;-144.67;100.00
47522;BME280;32291;52.010;4.446;2023-07-31T03:57:21;77292.13;;;-144.67;100.00
47522;BME280;32291;52.010;4.446;2023-07-31T03:58:28;77298.53;;;-144.67;100.00
47522;BME280;32291;52.010;4.446;2023-07-31T03:59:35;77319.94;;;-144.67;100.00
47522;BME280;32291;52.010;4.446;2023-07-31T04:00:42;77294.25;;;-144.67;100.00
47522;BME280;32291;52.010;4.446;2023-07-31T04:01:48;77302.81;;;-144.67;100.00
47522;BME280;32291;52.010;4.446;2023-07-31T04:02:55;77300.69;;;-144.67;100.00
47522;BME280;32291;52.010;4.446;2023-07-31T04:04:02;77298.53;;;-144.67;100.00
47522;BME280;32291;52.010;4.446;2023-07-31T04:05:09;77298.53;;;-144.67;100.00
47522;BME280;32291;52.010;4.446;2023-07-31T04:06:16;77298.53;;;-144.67;100.00
47522;BME280;32291;52.010;4.446;2023-07-31T04:07:25;77298.53;;;-144.67;100.00
47522;BME280;32291;52.010;4.446;2023-07-31T04:08:32;77311.38;;;-144.67;100.00
47522;BME280;32291;52.010;4.446;2023-07-31T04:09:34;77307.09;;;-144.67;100.00
47522;BME280;32291;52.010;4.446;2023-07-31T04:10:41;77317.81;;;-144.67;100.00
47522;BME280;32291;52.010;4.446;2023-07-31T04:11:48;77322.09;;;-144.67;100.00
47522;BME280;32291;52.010;4.446;2023-07-31T04:12:55;77315.66;;;-144.67;100.00
47522;BME280;32291;52.010;4.446;2023-07-31T04:14:02;77311.38;;;-144.67;100.00
47522;BME280;32291;52.010;4.446;2023-07-31T04:15:09;77304.97;;;-144.67;100.00
47522;BME280;32291;52.010;4.446;2023-07-31T04:16:16;77298.53;;;-144.67;100.00
47522;BME280;32291;52.010;4.446;2023-07-31T04:17:23;77304.97;;;-144.67;100.00
47522;BME280;32291;52.010;4.446;2023-07-31T04:18:30;77302.81;;;-144.67;100.00
47522;BME280;32291;52.010;4.446;2023-07-31T04:19:37;77311.38;;;-144.67;100.00
47522;BME280;32291;52.010;4.446;2023-07-31T04:20:44;77304.97;;;-144.67;100.00
47522;BME280;32291;52.010;4.446;2023-07-31T04:21:51;77315.66;;;-144.67;100.00
47522;BME280;32291;52.010;4.446;2023-07-31T04:22:58;77309.25;;;-144.67;100.00
47522;BME280;32291;52.010;4.446;2023-07-31T04:24:05;77315.66;;;-144.67;100.00
47522;BME280;32291;52.010;4.446;2023-07-31T04:25:11;77311.38;;;-144.67;100.00
47522;BME280;32291;52.010;4.446;2023-07-31T04:26:18;77319.94;;;-144.67;100.00
47522;BME280;32291;52.010;4.446;2023-07-31T04:27:25;77309.25;;;-144.67;100.00
47522;BME280;32291;52.010;4.446;2023-07-31T04:28:32;77302.81;;;-144.67;100.00
47522;BME280;32291;52.010;4.446;2023-07-31T04:29:39;77304.97;;;-144.67;100.00
47522;BME280;32291;52.010;4.446;2023-07-31T04:30:48;77302.81;;;-144.67;100.00
47522;BME280;32291;52.010;4.446;2023-07-31T04:31:55;77298.53;;;-144.67;100.00
47522;BME280;32291;52.010;4.446;2023-07-31T04:33:02;77302.81;;;-144.67;100.00
47522;BME280;32291;52.010;4.446;2023-07-31T04:34:09;77298.53;;;-144.67;100.00
47522;BME280;32291;52.010;4.446;2023-07-31T04:35:11;77311.38;;;-144.67;100.00
47522;BME280;32291;52.010;4.446;2023-07-31T04:36:13;77311.38;;;-144.67;100.00
47522;BME280;32291;52.010;4.446;2023-07-31T04:37:20;77313.53;;;-144.67;100.00
47522;BME280;32291;52.010;4.446;2023-07-31T04:38:26;77315.66;;;-144.67;100.00
47522;BME280;32291;52.010;4.446;2023-07-31T04:39:33;77319.94;;;-144.67;100.00
47522;BME280;32291;52.010;4.446;2023-07-31T04:40:40;77324.22;;;-144.67;100.00
47522;BME280;32291;52.010;4.446;2023-07-31T04:41:42;77319.94;;;-144.67;100.00
47522;BME280;32291;52.010;4.446;2023-07-31T04:42:44;77328.50;;;-144.67;100.00
47522;BME280;32291;52.010;4.446;2023-07-31T04:43:46;77324.22;;;-144.67;100.00
47522;BME280;32291;52.010;4.446;2023-07-31T04:44:48;77324.22;;;-144.67;100.00
47522;BME280;32291;52.010;4.446;2023-07-31T04:45:55;77341.34;;;-144.67;100.00
47522;BME280;32291;52.010;4.446;2023-07-31T04:47:02;77341.34;;;-144.67;100.00
47522;BME280;32291;52.010;4.446;2023-07-31T04:48:09;77341.34;;;-144.67;100.00
47522;BME280;32291;52.010;4.446;2023-07-31T04:49:16;77343.50;;;-144.67;100.00
47522;BME280;32291;52.010;4.446;2023-07-31T04:50:23;77341.34;;;-144.67;100.00
47522;BME280;32291;52.010;4.446;2023-07-31T04:51:25;77343.50;;;-144.67;100.00
47522;BME280;32291;52.010;4.446;2023-07-31T04:52:32;77345.63;;;-144.67;100.00
47522;BME280;32291;52.010;4.446;2023-07-31T04:53:34;77347.78;;;-144.67;100.00
47522;BME280;32291;52.010;4.446;2023-07-31T04:54:41;77349.91;;;-144.67;100.00
47522;BME280;32291;52.010;4.446;2023-07-31T04:55:50;77352.06;;;-144.67;100.00
47522;BME280;32291;52.010;4.446;2023-07-31T04:56:57;77354.19;;;-144.67;100.00
47522;BME280;32291;52.010;4.446;2023-07-31T04:58:05;77352.06;;;-144.67;100.00
47522;BME280;32291;52.010;4.446;2023-07-31T04:59:07;77349.91;;;-144.67;100.00
47522;BME280;32291;52.010;4.446;2023-07-31T05:00:14;77345.63;;;-144.67;100.00
47522;BME280;32291;52.010;4.446;2023-07-31T05:01:21;77341.34;;;-144.67;100.00
47522;BME280;32291;52.010;4.446;2023-07-31T05:02:28;77337.06;;;-144.67;100.00
47522;BME280;32291;52.010;4.446;2023-07-31T05:03:34;77343.50;;;-144.67;100.00
47522;BME280;32291;52.010;4.446;2023-07-31T05:04:36;77349.91;;;-144.67;100.00
47522;BME280;32291;52.010;4.446;2023-07-31T05:05:38;77349.91;;;-144.67;100.00
47522;BME280;32291;52.010;4.446;2023-07-31T05:06:41;77341.34;;;-144.67;100.00
47522;BME280;32291;52.010;4.446;2023-07-31T05:07:51;77334.94;;;-144.67;100.00
47522;BME280;32291;52.010;4.446;2023-07-31T05:08:53;77337.06;;;-144.67;100.00
47522;BME280;32291;52.010;4.446;2023-07-31T05:09:59;77332.78;;;-144.67;100.00
47522;BME280;32291;52.010;4.446;2023-07-31T05:11:03;77345.63;;;-144.67;100.00
47522;BME280;32291;52.010;4.446;2023-07-31T05:12:09;77334.94;;;-144.67;100.00
47522;BME280;32291;52.010;4.446;2023-07-31T05:13:16;77332.78;;;-144.67;100.00
47522;BME280;32291;52.010;4.446;2023-07-31T05:14:19;77339.22;;;-144.67;100.00
47522;BME280;32291;52.010;4.446;2023-07-31T05:15:26;77328.50;;;-144.67;100.00
47522;BME280;32291;52.010;4.446;2023-07-31T05:16:33;77328.50;;;-144.67;100.00
47522;BME280;32291;52.010;4.446;2023-07-31T05:17:40;77319.94;;;-144.67;100.00
47522;BME280;32291;52.010;4.446;2023-07-31T05:18:47;77328.50;;;-144.67;100.00
47522;BME280;32291;52.010;4.446;2023-07-31T05:19:53;77319.94;;;-144.67;100.00
47522;BME280;32291;52.010;4.446;2023-07-31T05:21:00;77315.66;;;-144.67;100.00
47522;BME280;32291;52.010;4.446;2023-07-31T05:22:07;77328.50;;;-144.67;100.00
47522;BME280;32291;52.010;4.446;2023-07-31T05:23:14;77319.94;;;-144.67;100.00
47522;BME280;32291;52.010;4.446;2023-07-31T05:24:21;77326.38;;;-144.67;100.00
47522;BME280;32291;52.010;4.446;2023-07-31T05:25:23;77315.66;;;-144.67;100.00
47522;BME280;32291;52.010;4.446;2023-07-31T05:26:29;77315.66;;;-144.67;100.00
47522;BME280;32291;52.010;4.446;2023-07-31T05:27:36;77307.09;;;-144.67;100.00
47522;BME280;32291;52.010;4.446;2023-07-31T05:28:43;77317.81;;;-144.67;100.00
47522;BME280;32291;52.010;4.446;2023-07-31T05:29:50;77309.25;;;-144.67;100.00
47522;BME280;32291;52.010;4.446;2023-07-31T05:31:01;77302.81;;;-144.67;100.00
47522;BME280;32291;52.010;4.446;2023-07-31T05:32:08;77317.81;;;-144.67;100.00
47522;BME280;32291;52.010;4.446;2023-07-31T05:33:15;77304.97;;;-144.67;100.00
47522;BME280;32291;52.010;4.446;2023-07-31T05:34:22;77298.53;;;-144.67;100.00
47522;BME280;32291;52.010;4.446;2023-07-31T05:35:29;77311.38;;;-144.67;100.00
47522;BME280;32291;52.010;4.446;2023-07-31T05:36:31;77300.69;;;-144.67;100.00
47522;BME280;32291;52.010;4.446;2023-07-31T05:37:38;77304.97;;;-144.67;100.00
47522;BME280;32291;52.010;4.446;2023-07-31T05:38:44;77307.09;;;-144.67;100.00
47522;BME280;32291;52.010;4.446;2023-07-31T05:39:51;77289.97;;;-144.67;100.00
47522;BME280;32291;52.010;4.446;2023-07-31T05:40:53;77298.53;;;-144.67;100.00
47522;BME280;32291;52.010;4.446;2023-07-31T05:41:55;77289.97;;;-144.67;100.00
47522;BME280;32291;52.010;4.446;2023-07-31T05:42:58;77294.25;;;-144.67;100.00
47522;BME280;32291;52.010;4.446;2023-07-31T05:44:00;77289.97;;;-144.67;100.00